Time;durP1;ratioP1;P1;durP2;ratioP2;P2;SDS_P1;SDS_P2;PMS_P1;PMS_P2;Temp;Humidity;BMP_temperature;BMP_pressure;BME280_temperature;BME280_humidity;BME280_pressure;Samples;Min_cycle;Max_cycle;Signal;HPM_P1;HPM_P2
2021/11/10 03:45:32;;;;;;;33.33;16.50;;;7.70;99.30;;;;;;5844419;24;20805;31
2021/11/10 03:48:04;;;;;;;29.83;16.10;;;7.70;99.50;;;;;;4829298;29;20047;-78
2021/11/10 03:50:30;;;;;;;29.52;16.40;;;7.70;99.50;;;;;;4800845;29;20063;-78
2021/11/10 03:52:58;;;;;;;26.95;16.15;;;7.80;99.40;;;;;;4801821;29;20034;-78
2021/11/10 03:55:34;;;;;;;;;;;7.80;99.20;;;;;;4816430;29;20157;-79
2021/11/10 03:57:59;;;;;;;34.13;16.05;;;7.80;99.30;;;;;;4822001;29;20219;-78
2021/11/10 04:00:25;;;;;;;27.67;15.75;;;7.80;99.20;;;;;;4794911;30;20039;-79
2021/11/10 04:02:55;;;;;;;24.73;15.05;;;7.80;99.20;;;;;;4807939;29;20348;-79
2021/11/10 04:05:27;;;;;;;30.55;17.08;;;7.90;99.60;;;;;;4813658;29;20026;-78
2021/11/10 04:07:55;;;;;;;32.58;17.02;;;7.90;99.30;;;;;;4801124;29;20330;-78
2021/11/10 04:10:22;;;;;;;27.58;16.55;;;7.90;99.30;;;;;;4800817;29;20121;-79
2021/11/10 04:12:49;;;;;;;30.15;16.35;;;8.00;99.30;;;;;;4800890;29;20092;-79
2021/11/10 04:15:15;;;;;;;31.43;15.67;;;8.00;99.10;;;;;;4800935;29;20035;-78
2021/11/10 04:17:42;;;;;;;35.10;17.17;;;8.00;99.10;;;;;;4800647;29;20089;-78
2021/11/10 04:20:09;;;;;;;27.67;16.75;;;8.00;99.20;;;;;;4801091;29;20043;-78
2021/11/10 04:22:35;;;;;;;27.75;17.38;;;8.10;99.10;;;;;;4800614;29;20035;-78
2021/11/10 04:25:03;;;;;;;25.15;15.90;;;8.10;98.90;;;;;;4798028;29;20124;-78
2021/11/10 04:27:29;;;;;;;36.33;18.40;;;8.10;98.80;;;;;;4785753;29;20331;-78
2021/11/10 04:29:55;;;;;;;31.33;18.13;;;8.10;99.20;;;;;;4815672;29;20038;-78
2021/11/10 04:32:22;;;;;;;35.05;17.00;;;8.10;98.90;;;;;;4801004;29;20034;-79
2021/11/10 04:34:48;;;;;;;28.65;16.83;;;8.10;99.00;;;;;;4815145;29;20063;-79
2021/11/10 04:37:15;;;;;;;29.85;16.60;;;8.10;98.90;;;;;;4800525;29;20031;-79
2021/11/10 04:39:42;;;;;;;29.90;17.33;;;8.10;99.00;;;;;;4800506;29;20034;-79
2021/11/10 04:42:10;;;;;;;24.73;16.90;;;8.10;98.90;;;;;;4800828;29;20049;-79
2021/11/10 04:44:38;;;;;;;30.52;17.20;;;8.00;99.00;;;;;;4800646;29;20050;-79
2021/11/10 04:47:05;;;;;;;30.65;17.73;;;8.00;98.90;;;;;;4811818;29;20420;-79
2021/11/10 04:49:31;;;;;;;31.67;17.80;;;8.00;98.90;;;;;;4794913;30;20131;-78
2021/11/10 04:52:02;;;;;;;26.23;16.40;;;7.90;99.00;;;;;;4808643;29;20092;-78
2021/11/10 04:54:32;;;;;;;33.05;19.10;;;7.80;99.10;;;;;;4785623;30;20035;-78
2021/11/10 04:57:04;;;;;;;33.88;18.65;;;7.80;99.10;;;;;;4787724;30;20035;-78
2021/11/10 04:59:32;;;;;;;28.48;17.83;;;7.70;99.30;;;;;;4776516;30;20081;-78
2021/11/10 05:04:35;;;;;;;30.55;17.42;;;7.70;99.40;;;;;;4787188;29;20066;-79
2021/11/10 05:07:03;;;;;;;30.45;18.08;;;7.60;99.50;;;;;;4768668;30;20040;-78
2021/11/10 05:09:29;;;;;;;34.33;18.58;;;7.60;99.50;;;;;;4797231;30;20331;-79
2021/11/10 05:11:55;;;;;;;30.02;18.60;;;7.50;99.80;;;;;;4786501;29;20047;-79
2021/11/10 05:14:22;;;;;;;29.17;17.73;;;7.50;99.80;;;;;;4768718;30;20027;-78
2021/11/10 05:16:49;;;;;;;37.38;17.55;;;7.40;99.90;;;;;;4782123;30;20392;-78
2021/11/10 05:19:15;;;;;;;29.58;18.00;;;7.50;99.90;;;;;;4785027;30;20039;-79
2021/11/10 05:21:42;;;;;;;23.08;15.70;;;7.50;99.80;;;;;;4782098;30;20047;-79
2021/11/10 05:24:09;;;;;;;30.05;16.67;;;7.40;99.90;;;;;;4793016;29;20054;-79
2021/11/10 05:26:37;;;;;;;31.33;17.33;;;7.40;99.90;;;;;;4788876;30;20039;-79
2021/11/10 05:29:04;;;;;;;30.83;16.65;;;7.40;99.80;;;;;;4785415;30;20043;-78
2021/11/10 05:31:30;;;;;;;34.60;16.48;;;7.40;99.80;;;;;;4796883;29;20277;-78
2021/11/10 05:33:56;;;;;;;28.42;15.32;;;7.40;99.70;;;;;;4796724;29;20035;-79
2021/11/10 05:36:22;;;;;;;33.10;15.13;;;7.40;99.60;;;;;;4796733;30;20039;-79
2021/11/10 05:38:48;;;;;;;24.88;15.00;;;7.50;99.60;;;;;;4791559;29;20757;-79
2021/11/10 05:41:14;;;;;;;23.35;14.82;;;7.50;99.70;;;;;;4771699;30;20035;-79
2021/11/10 05:43:42;;;;;;;33.47;16.23;;;7.50;99.40;;;;;;4793355;29;20062;-79
2021/11/10 05:46:08;;;;;;;26.30;15.45;;;7.50;99.50;;;;;;4793499;30;20276;-79
2021/11/10 05:48:34;;;;;;;24.08;13.23;;;7.50;99.20;;;;;;4794904;30;21007;-78
2021/11/10 05:51:03;;;;;;;26.55;14.60;;;7.50;99.10;;;;;;4777830;30;20053;-78
2021/11/10 05:53:30;;;;;;;25.63;13.25;;;7.60;99.10;;;;;;4781572;30;20035;-79
2021/11/10 05:55:56;;;;;;;24.25;14.13;;;7.60;99.00;;;;;;4778532;30;20042;-79
2021/11/10 05:58:23;;;;;;;28.27;13.75;;;7.60;98.90;;;;;;4796198;30;20042;-79
2021/11/10 06:00:50;;;;;;;;;;;7.60;98.70;;;;;;4781147;30;20044;-79
2021/11/10 06:03:16;;;;;;;25.67;13.90;;;7.60;98.60;;;;;;4799978;29;19913;-79
2021/11/10 06:05:42;;;;;;;21.67;12.65;;;7.70;98.60;;;;;;4788018;29;20143;-78
2021/11/10 06:08:08;;;;;;;25.35;13.35;;;7.70;98.50;;;;;;4781175;30;20047;-79
2021/11/10 06:10:34;;;;;;;22.30;12.57;;;7.70;98.40;;;;;;4799691;29;20334;-78
2021/11/10 06:12:59;;;;;;;23.25;12.85;;;7.80;98.30;;;;;;4795411;29;20035;-79
2021/11/10 06:15:25;;;;;;;21.00;12.27;;;7.80;98.20;;;;;;4802629;29;20225;-79
2021/11/10 06:17:51;;;;;;;22.42;12.32;;;7.80;98.10;;;;;;4779214;30;20077;-79
2021/11/10 06:20:17;;;;;;;19.25;11.45;;;7.90;97.90;;;;;;4783995;30;20233;-79
2021/11/10 06:22:45;;;;;;;29.42;11.95;;;7.90;97.80;;;;;;4794932;30;20039;-79
2021/11/10 06:25:19;;;;;;;24.05;12.02;;;7.90;97.70;;;;;;4799869;30;20042;-79
2021/11/10 06:27:45;;;;;;;20.55;12.77;;;7.90;97.60;;;;;;4784675;30;20071;-79
2021/11/10 06:30:11;;;;;;;21.85;12.70;;;8.00;97.60;;;;;;4787650;30;20065;-80
2021/11/10 06:32:37;;;;;;;17.43;12.40;;;7.90;97.60;;;;;;4781194;30;20034;-79
2021/11/10 06:35:05;;;;;;;20.05;11.55;;;8.00;97.40;;;;;;4780742;29;20031;-79
2021/11/10 06:37:31;;;;;;;27.02;11.95;;;8.00;97.40;;;;;;4794130;29;20042;-79
2021/11/10 06:39:57;;;;;;;23.48;11.63;;;8.10;97.40;;;;;;4784155;30;20351;-79
2021/11/10 06:42:24;;;;;;;17.38;11.55;;;8.10;97.30;;;;;;4795359;29;20043;-79
2021/11/10 06:44:50;;;;;;;;;;;8.10;97.20;;;;;;4783057;30;20343;-79
2021/11/10 06:47:16;;;;;;;21.87;12.53;;;8.10;97.10;;;;;;4796364;29;19921;-80
2021/11/10 06:49:42;;;;;;;19.67;12.07;;;8.20;97.10;;;;;;4775106;30;20046;-79
2021/11/10 06:52:10;;;;;;;21.92;11.02;;;8.30;96.80;;;;;;4789722;30;20055;-79
2021/11/10 06:54:36;;;;;;;18.50;10.20;;;8.50;96.40;;;;;;4804873;29;20117;-79
2021/11/10 06:57:02;;;;;;;18.45;10.95;;;8.50;96.20;;;;;;4795454;30;20222;-80
2021/11/10 06:59:28;;;;;;;23.90;11.55;;;8.50;96.30;;;;;;4816002;29;20031;-79
2021/11/10 07:01:54;;;;;;;23.23;11.13;;;8.50;96.20;;;;;;4798899;29;20277;-79
2021/11/10 07:04:19;;;;;;;19.08;11.45;;;8.60;96.10;;;;;;4792151;29;20038;-79
2021/11/10 07:06:45;;;;;;;22.20;10.68;;;8.60;96.00;;;;;;4800126;29;20374;-79
2021/11/10 07:09:11;;;;;;;21.13;11.02;;;8.70;95.80;;;;;;4795602;30;20064;-79
2021/11/10 07:11:37;;;;;;;21.38;10.85;;;8.70;95.70;;;;;;4778408;30;20039;-79
2021/11/10 07:14:05;;;;;;;21.40;10.35;;;8.80;95.50;;;;;;4777175;30;20031;-79
2021/11/10 07:16:32;;;;;;;19.48;9.73;;;8.90;95.20;;;;;;4782563;30;20035;-79
2021/11/10 07:18:58;;;;;;;14.40;9.02;;;9.00;94.80;;;;;;4782251;30;20295;-79
2021/11/10 07:21:24;;;;;;;18.27;10.10;;;9.00;94.80;;;;;;4783062;30;20066;-79
2021/11/10 07:23:50;;;;;;;21.40;9.93;;;9.10;94.30;;;;;;4782841;30;20059;-79
2021/11/10 07:26:16;;;;;;;22.05;10.07;;;9.10;94.00;;;;;;4778747;30;20359;-80
2021/11/10 07:28:42;;;;;;;16.23;10.50;;;9.20;93.90;;;;;;4763303;30;20141;-79
2021/11/10 07:31:08;;;;;;;19.05;10.20;;;9.20;93.80;;;;;;4793272;30;20702;-79
2021/11/10 07:33:33;;;;;;;24.77;11.65;;;9.30;93.80;;;;;;4797948;29;20027;-79
2021/11/10 07:35:59;;;;;;;23.65;12.10;;;9.40;93.80;;;;;;4796397;30;20054;-79
2021/11/10 07:38:25;;;;;;;20.23;11.52;;;9.40;93.60;;;;;;4789342;29;20030;-79
2021/11/10 07:40:56;;;;;;;21.30;11.57;;;9.50;93.50;;;;;;4800286;29;20031;-79
2021/11/10 07:47:19;;;;;;;23.23;11.35;;;9.60;93.30;;;;;;4778052;30;20235;-79
2021/11/10 07:49:45;;;;;;;22.85;11.93;;;9.60;93.20;;;;;;4779610;30;20031;-79
2021/11/10 07:52:12;;;;;;;20.17;11.67;;;9.70;92.90;;;;;;4793352;30;20363;-80
2021/11/10 07:54:38;;;;;;;;;;;9.80;92.70;;;;;;4814956;29;20035;-79
2021/11/10 07:57:04;;;;;;;16.47;10.03;;;9.80;92.30;;;;;;4773995;30;19918;-80
2021/11/10 07:59:30;;;;;;;20.70;11.18;;;9.90;92.10;;;;;;4791709;30;20043;-79
2021/11/10 08:01:56;;;;;;;19.15;10.73;;;9.90;91.90;;;;;;4788017;29;20099;-80
2021/11/10 08:04:22;;;;;;;15.40;8.57;;;10.00;91.70;;;;;;4777472;30;20051;-79
2021/11/10 08:06:48;;;;;;;22.77;9.85;;;10.00;91.30;;;;;;4802330;29;20118;-79
2021/11/10 08:09:14;;;;;;;18.40;9.07;;;10.10;91.30;;;;;;4784031;30;20031;-79
2021/11/10 08:11:40;;;;;;;13.13;7.68;;;10.10;90.90;;;;;;4808643;29;20066;-80
2021/11/10 08:14:06;;;;;;;19.30;9.93;;;10.20;90.90;;;;;;4795887;29;20056;-80
2021/11/10 08:16:33;;;;;;;22.10;7.78;;;10.20;90.80;;;;;;4790864;30;20046;-80
2021/11/10 08:18:59;;;;;;;16.95;7.88;;;10.30;90.20;;;;;;4796652;30;20227;-80
2021/11/10 08:21:25;;;;;;;15.23;7.97;;;10.30;90.30;;;;;;4775967;30;20046;-79
2021/11/10 08:23:51;;;;;;;16.13;8.10;;;10.30;89.70;;;;;;4780654;30;20039;-79
2021/11/10 08:26:17;;;;;;;15.40;9.05;;;10.40;89.80;;;;;;4781794;30;20035;-79
2021/11/10 08:28:43;;;;;;;17.13;9.00;;;10.40;89.60;;;;;;4800689;29;20046;-79
2021/11/10 08:31:09;;;;;;;16.33;9.32;;;10.40;89.20;;;;;;4790751;30;20042;-79
2021/11/10 08:33:35;;;;;;;19.48;9.75;;;10.40;89.50;;;;;;4779062;30;20040;-79
2021/11/10 08:36:01;;;;;;;16.80;9.38;;;10.50;88.90;;;;;;4784402;30;20030;-79
2021/11/10 08:38:29;;;;;;;19.90;9.05;;;10.50;88.70;;;;;;4794529;29;20039;-79
2021/11/10 08:40:55;;;;;;;;;;;10.60;89.10;;;;;;4784335;30;20355;-79
2021/11/10 08:43:20;;;;;;;20.07;10.03;;;10.70;88.50;;;;;;4779906;30;19956;-79
2021/11/10 08:45:48;;;;;;;17.77;9.73;;;10.80;88.40;;;;;;4781621;30;20050;-79
2021/11/10 08:48:15;;;;;;;16.33;10.25;;;10.80;87.40;;;;;;4796062;29;20112;-79
2021/11/10 08:50:43;;;;;;;15.23;10.07;;;10.80;87.70;;;;;;4785751;29;20155;-80
2021/11/10 08:53:10;;;;;;;20.52;10.18;;;10.80;88.40;;;;;;4789315;30;20043;-79
2021/11/10 08:55:36;;;;;;;23.33;10.93;;;10.80;88.20;;;;;;4795897;30;20042;-80
2021/11/10 08:58:04;;;;;;;24.73;10.75;;;10.80;87.50;;;;;;4765126;30;20157;-80
2021/11/10 09:00:30;;;;;;;;;;;10.90;87.90;;;;;;4795508;30;20039;-80
2021/11/10 09:02:56;;;;;;;;;;;11.00;87.70;;;;;;4806826;29;19957;-80
2021/11/10 09:05:24;;;;;;;17.10;10.02;;;10.90;87.60;;;;;;4784512;30;19921;-80
2021/11/10 09:07:50;;;;;;;22.77;10.77;;;11.00;87.80;;;;;;4795605;29;20068;-80
2021/11/10 09:10:18;;;;;;;22.15;10.90;;;11.10;88.20;;;;;;4810531;29;20035;-80
2021/11/10 09:12:47;;;;;;;21.63;10.52;;;11.20;87.50;;;;;;4795892;29;20109;-80
2021/11/10 09:15:14;;;;;;;19.40;10.93;;;11.30;87.10;;;;;;4780754;30;20081;-80
2021/11/10 09:17:42;;;;;;;19.23;10.98;;;11.40;87.20;;;;;;4795862;30;20046;-80
2021/11/10 09:20:18;;;;;;;;;;;11.40;86.50;;;;;;4803694;29;20035;-80
2021/11/10 09:22:45;;;;;;;17.70;9.93;;;11.40;86.50;;;;;;4779319;29;20197;-80
2021/11/10 09:25:13;;;;;;;18.38;10.60;;;11.40;86.20;;;;;;4780068;30;20046;-80
2021/11/10 09:27:39;;;;;;;18.60;11.30;;;11.30;86.20;;;;;;4790834;29;20037;-80
2021/11/10 09:30:08;;;;;;;20.90;10.13;;;11.40;87.00;;;;;;4779872;30;20071;-80
2021/11/10 09:32:34;;;;;;;24.83;10.20;;;11.50;86.40;;;;;;4778444;29;20219;-80
2021/11/10 09:35:00;;;;;;;20.58;10.63;;;11.60;86.30;;;;;;4778273;30;20061;-80
2021/11/10 09:37:27;;;;;;;19.23;11.07;;;11.80;86.20;;;;;;4764653;30;20118;-80
2021/11/10 09:39:53;;;;;;;24.55;11.88;;;11.90;86.30;;;;;;4800643;29;20284;-80
2021/11/10 09:42:25;;;;;;;21.30;10.55;;;11.90;84.80;;;;;;4784529;30;20205;-80
2021/11/10 09:44:53;;;;;;;17.33;11.65;;;12.00;84.10;;;;;;4784279;30;20039;-80
2021/11/10 09:47:19;;;;;;;18.83;10.90;;;11.90;83.50;;;;;;4777063;30;20130;-80
2021/11/10 09:49:47;;;;;;;21.20;10.50;;;11.80;83.90;;;;;;4789830;29;20231;-80
2021/11/10 09:52:14;;;;;;;17.10;10.05;;;11.90;84.10;;;;;;4788653;30;20043;-80
2021/11/10 09:54:40;;;;;;;15.85;10.43;;;11.90;83.70;;;;;;4786216;30;20095;-79
2021/11/10 09:57:06;;;;;;;16.98;10.48;;;11.90;83.90;;;;;;4801525;29;20235;-79
2021/11/10 09:59:32;;;;;;;21.57;10.93;;;12.00;84.30;;;;;;4773238;30;20227;-80
2021/11/10 10:01:58;;;;;;;20.33;11.60;;;12.20;83.80;;;;;;4778534;30;20323;-80
2021/11/10 10:04:25;;;;;;;20.38;11.75;;;12.20;83.80;;;;;;4779705;30;20043;-80
2021/11/10 10:06:52;;;;;;;;;;;12.30;83.10;;;;;;4781052;29;20043;-79
2021/11/10 10:09:18;;;;;;;24.92;11.68;;;12.30;82.00;;;;;;4777448;29;19910;-80
2021/11/10 10:11:44;;;;;;;26.27;11.53;;;12.10;82.70;;;;;;4798533;29;20052;-79
2021/11/10 10:14:10;;;;;;;23.48;12.05;;;12.10;83.00;;;;;;4778243;30;20150;-80
2021/11/10 10:16:37;;;;;;;22.15;13.23;;;12.20;83.30;;;;;;4793598;30;20273;-80
2021/11/10 10:19:08;;;;;;;22.33;12.50;;;12.20;82.40;;;;;;4788540;29;20032;-78
2021/11/10 10:21:34;;;;;;;22.23;11.73;;;12.20;83.50;;;;;;4785908;29;20044;-78
2021/11/10 10:24:01;;;;;;;23.90;11.50;;;12.20;82.90;;;;;;4785752;30;20371;-79
2021/11/10 10:26:27;;;;;;;18.08;11.90;;;12.30;83.40;;;;;;4786156;30;20349;-79
2021/11/10 10:29:03;;;;;;;16.40;11.05;;;12.20;82.10;;;;;;4793073;30;20065;-79
2021/11/10 10:31:29;;;;;;;18.40;10.82;;;12.30;82.30;;;;;;4789083;29;20239;-79
2021/11/10 10:34:02;;;;;;;18.80;11.70;;;12.40;82.20;;;;;;4775750;30;20328;-79
2021/11/10 10:36:34;;;;;;;25.08;12.70;;;12.50;82.90;;;;;;4789466;30;20546;-79
2021/11/10 10:39:09;;;;;;;28.02;11.35;;;12.70;82.60;;;;;;4784046;30;20031;-79
2021/11/10 10:41:37;;;;;;;19.38;9.95;;;12.70;81.90;;;;;;4786128;30;20032;-79
2021/11/10 10:44:24;;;;;;;18.13;10.02;;;12.80;81.90;;;;;;4791640;30;20255;-79
2021/11/10 10:47:01;;;;;;;20.25;10.75;;;12.90;81.20;;;;;;4772138;30;20035;-79
2021/11/10 10:49:32;;;;;;;19.48;11.05;;;13.00;80.40;;;;;;4777609;30;20295;-80
2021/11/10 10:52:09;;;;;;;20.48;10.80;;;13.00;80.40;;;;;;4787542;30;20050;-80
2021/11/10 10:54:35;;;;;;;;;;;13.10;80.00;;;;;;4798431;29;20123;-80
2021/11/10 10:57:02;;;;;;;20.95;10.55;;;13.20;78.80;;;;;;4798707;29;19921;-80
2021/11/10 10:59:29;;;;;;;21.17;10.35;;;13.00;78.70;;;;;;4783488;29;20350;-80
2021/11/10 11:02:00;;;;;;;18.92;12.18;;;13.00;79.10;;;;;;4782598;30;20051;-79
2021/11/10 11:04:29;;;;;;;16.15;10.70;;;13.10;79.50;;;;;;4797994;30;20031;-79
2021/11/10 11:07:09;;;;;;;23.25;10.15;;;13.20;79.30;;;;;;4780236;30;20108;-79
2021/11/10 11:09:42;;;;;;;20.75;10.45;;;13.30;78.40;;;;;;4780339;30;20035;-79
2021/11/10 11:12:32;;;;;;;24.70;10.40;;;13.30;77.60;;;;;;4780670;30;20238;-79
2021/11/10 11:15:25;;;;;;;18.52;11.02;;;13.10;77.40;;;;;;4780757;30;20039;-78
2021/11/10 11:17:55;;;;;;;19.05;11.50;;;13.10;78.10;;;;;;4799009;29;20116;-80
2021/11/10 11:20:35;;;;;;;22.25;11.63;;;13.10;79.50;;;;;;4780704;30;20067;-80
2021/11/10 11:23:02;;;;;;;22.63;11.65;;;13.10;80.00;;;;;;4795843;30;20035;-78
2021/11/10 11:25:34;;;;;;;26.90;13.50;;;13.00;80.10;;;;;;4797775;29;20350;-79
2021/11/10 11:28:13;;;;;;;23.10;12.90;;;13.00;80.20;;;;;;4802468;29;20330;-78
2021/11/10 11:30:57;;;;;;;26.10;14.60;;;13.00;81.00;;;;;;4807156;29;20093;-78
2021/11/10 11:33:27;;;;;;;17.38;12.65;;;13.10;80.80;;;;;;4795063;29;20254;-79
2021/11/10 11:35:58;;;;;;;18.40;12.45;;;13.20;80.10;;;;;;4765161;30;20264;-79
2021/11/10 11:38:27;;;;;;;20.38;12.35;;;13.20;80.40;;;;;;4780354;29;20032;-79
2021/11/10 11:40:56;;;;;;;21.05;11.65;;;13.10;80.10;;;;;;4788982;30;20039;-78
2021/11/10 11:43:24;;;;;;;20.40;13.35;;;13.00;80.50;;;;;;4797339;29;20362;-78
2021/11/10 11:45:53;;;;;;;17.90;12.15;;;13.10;80.80;;;;;;4780156;30;20231;-78
2021/11/10 11:48:25;;;;;;;23.45;12.40;;;13.10;80.60;;;;;;4791765;30;20136;-79
2021/11/10 11:50:52;;;;;;;25.92;13.70;;;13.00;80.40;;;;;;4771704;30;20093;-79
2021/11/10 11:53:19;;;;;;;24.60;12.25;;;12.90;80.40;;;;;;4797536;29;20050;-79
2021/11/10 11:55:50;;;;;;;17.30;11.52;;;12.90;80.60;;;;;;4787466;29;20032;-79
2021/11/10 11:58:21;;;;;;;23.67;12.45;;;12.80;81.10;;;;;;4784028;29;20047;-79
2021/11/10 12:01:00;;;;;;;33.60;12.43;;;12.80;81.10;;;;;;4796612;29;20239;-78
2021/11/10 12:03:41;;;;;;;21.02;12.60;;;12.80;81.40;;;;;;4782079;30;20331;-79
2021/11/10 12:06:07;;;;;;;23.83;11.95;;;12.70;80.70;;;;;;4797030;30;20039;-79
2021/11/10 12:08:54;;;;;;;24.38;13.45;;;12.70;80.50;;;;;;4768695;30;20105;-79
2021/11/10 12:11:19;;;;;;;;;;;12.60;80.70;;;;;;4780046;30;20032;-79
2021/11/10 12:14:04;;;;;;;25.45;14.57;;;12.60;81.00;;;;;;4764678;30;19924;-79
2021/11/10 12:16:52;;;;;;;29.92;15.10;;;12.60;79.90;;;;;;4767063;30;20343;-79
2021/11/10 12:19:28;;;;;;;21.38;11.05;;;12.60;80.80;;;;;;4766827;30;20054;-79
2021/11/10 12:22:10;;;;;;;21.57;10.73;;;12.60;79.80;;;;;;4781782;30;20042;-79
2021/11/10 12:24:53;;;;;;;18.83;11.50;;;12.50;80.30;;;;;;4781756;30;20058;-79
2021/11/10 12:27:32;;;;;;;23.02;11.70;;;12.50;80.20;;;;;;4797996;29;20042;-79
2021/11/10 12:30:07;;;;;;;15.98;10.25;;;12.40;80.60;;;;;;4791601;29;20070;-79
2021/11/10 12:32:33;;;;;;;25.00;11.32;;;12.40;81.20;;;;;;4787023;29;20035;-79
2021/11/10 12:35:00;;;;;;;20.25;10.48;;;12.50;80.00;;;;;;4773573;30;20295;-80
2021/11/10 12:37:35;;;;;;;17.65;11.02;;;12.40;80.30;;;;;;4796783;30;20035;-80
2021/11/10 12:40:12;;;;;;;19.67;11.77;;;12.40;80.20;;;;;;4796048;29;20575;-79
2021/11/10 12:43:04;;;;;;;25.10;11.10;;;12.40;80.60;;;;;;4789251;29;20050;-79
2021/11/10 12:45:40;;;;;;;18.83;12.13;;;12.40;80.00;;;;;;4778676;30;20350;-79
2021/11/10 12:48:10;;;;;;;17.08;10.45;;;12.40;79.90;;;;;;4763899;30;20097;-79
2021/11/10 12:50:50;;;;;;;20.75;11.50;;;12.40;80.40;;;;;;4784562;30;20283;-79
2021/11/10 12:53:35;;;;;;;27.70;12.32;;;12.40;80.60;;;;;;4778778;30;20063;-78
2021/11/10 12:56:01;;;;;;;16.63;10.65;;;12.40;80.60;;;;;;4755872;30;20042;-78
2021/11/10 12:58:29;;;;;;;22.55;12.63;;;12.40;80.50;;;;;;4791723;30;20198;-80
2021/11/10 13:01:04;;;;;;;24.10;11.23;;;12.40;81.10;;;;;;4776133;30;20053;-80
2021/11/10 13:03:34;;;;;;;20.92;11.57;;;12.40;80.30;;;;;;4789246;30;20050;-80
2021/11/10 13:06:08;;;;;;;15.68;11.05;;;12.30;80.50;;;;;;4772063;29;20359;-80
2021/11/10 13:08:53;;;;;;;18.27;11.40;;;12.30;80.70;;;;;;4791639;30;20048;-80
2021/11/10 13:11:22;;;;;;;24.05;11.88;;;12.20;81.20;;;;;;4771280;30;20095;-80
2021/11/10 13:14:03;;;;;;;26.75;11.57;;;12.20;81.60;;;;;;4777648;30;20055;-80
2021/11/10 13:16:29;;;;;;;16.58;10.63;;;12.20;81.30;;;;;;4792599;30;20123;-80
2021/11/10 13:18:55;;;;;;;19.00;11.80;;;12.30;81.50;;;;;;4780299;30;20027;-80
2021/11/10 13:21:22;;;;;;;22.02;11.25;;;12.40;81.50;;;;;;4780060;30;20039;-80
2021/11/10 13:24:03;;;;;;;17.92;11.23;;;12.40;81.30;;;;;;4791212;30;20131;-80
2021/11/10 13:26:29;;;;;;;24.42;11.57;;;12.40;79.90;;;;;;4785216;29;20038;-80
2021/11/10 13:28:55;;;;;;;17.05;10.60;;;12.40;80.60;;;;;;4796088;29;20081;-80
2021/11/10 13:31:21;;;;;;;20.13;11.25;;;12.40;80.40;;;;;;4780753;30;20108;-80
2021/11/10 13:33:47;;;;;;;20.10;11.27;;;12.30;80.30;;;;;;4778657;30;20039;-80
2021/11/10 13:36:14;;;;;;;20.98;11.70;;;12.30;80.90;;;;;;4784044;30;20040;-80
2021/11/10 13:38:43;;;;;;;17.75;10.88;;;12.20;81.00;;;;;;4773790;30;20336;-80
2021/11/10 13:41:28;;;;;;;19.58;11.63;;;12.20;80.80;;;;;;4780031;30;20227;-80
2021/11/10 13:43:58;;;;;;;19.52;11.00;;;12.20;80.90;;;;;;4788448;30;20032;-80
2021/11/10 13:46:25;;;;;;;29.45;11.77;;;12.10;81.80;;;;;;4789312;29;20447;-80
2021/11/10 13:49:03;;;;;;;16.88;10.98;;;12.10;82.10;;;;;;4790717;30;20281;-80
2021/11/10 13:51:29;;;;;;;19.52;11.82;;;12.00;82.30;;;;;;4778053;30;20339;-80
2021/11/10 13:54:16;;;;;;;15.98;11.10;;;11.90;82.80;;;;;;4793760;30;20047;-80
2021/11/10 13:57:02;;;;;;;23.33;11.43;;;11.90;82.90;;;;;;4778825;29;20058;-80
2021/11/10 13:59:36;;;;;;;23.30;11.40;;;11.90;83.20;;;;;;4788501;29;20049;-80
2021/11/10 14:02:05;;;;;;;19.67;12.40;;;11.90;83.30;;;;;;4812534;29;20471;-80
2021/11/10 14:04:33;;;;;;;17.20;11.23;;;11.80;83.30;;;;;;4782223;29;20471;-80
2021/11/10 14:07:18;;;;;;;20.85;10.77;;;11.70;83.60;;;;;;4781801;29;20054;-80
2021/11/10 14:09:44;;;;;;;18.33;11.38;;;11.70;83.60;;;;;;4797668;29;20042;-80
2021/11/10 14:12:22;;;;;;;15.50;10.48;;;11.70;83.60;;;;;;4782472;29;20049;-80
2021/11/10 14:14:55;;;;;;;17.05;10.55;;;11.80;83.60;;;;;;4782388;29;20354;-80
2021/11/10 14:17:22;;;;;;;17.55;10.10;;;11.70;83.20;;;;;;4788623;29;20075;-80
2021/11/10 14:20:00;;;;;;;31.23;12.10;;;11.70;83.30;;;;;;4765340;29;20089;-80
2021/11/10 14:22:29;;;;;;;19.63;9.20;;;11.70;83.30;;;;;;4765945;30;20063;-80
2021/11/10 14:24:56;;;;;;;16.02;10.00;;;11.70;83.40;;;;;;4783104;30;20039;-80
2021/11/10 14:27:28;;;;;;;15.63;9.07;;;11.70;83.60;;;;;;4773682;29;20385;-80
2021/11/10 14:30:11;;;;;;;16.27;9.38;;;11.60;83.50;;;;;;4789917;30;20355;-80
2021/11/10 14:32:39;;;;;;;15.30;10.15;;;11.60;84.00;;;;;;4781181;29;20042;-80
2021/11/10 14:35:07;;;;;;;19.70;9.82;;;11.50;83.90;;;;;;4779926;29;20034;-80
2021/11/10 14:37:33;;;;;;;16.65;9.75;;;11.50;84.20;;;;;;4783159;30;20035;-80
2021/11/10 14:40:45;;;;;;;33.65;11.30;;;11.40;84.40;;;;;;4797961;29;20042;-80
2021/11/10 14:43:32;;;;;;;15.07;10.10;;;11.40;84.30;;;;;;4792330;30;20035;-80
2021/11/10 14:46:19;;;;;;;18.75;10.15;;;11.30;84.40;;;;;;4793298;30;20064;-80
2021/11/10 14:48:48;;;;;;;15.38;9.90;;;11.40;84.90;;;;;;4797153;29;20054;-80
2021/11/10 14:51:21;;;;;;;17.08;9.90;;;11.20;85.10;;;;;;4790752;29;20051;-80
2021/11/10 14:54:11;;;;;;;60.45;13.25;;;11.20;85.60;;;;;;4776359;30;20042;-80
2021/11/10 14:56:53;;;;;;;25.00;11.32;;;11.10;86.00;;;;;;4789816;30;20077;-80
2021/11/10 14:59:33;;;;;;;19.20;11.98;;;11.10;86.20;;;;;;4777262;30;20024;-80
2021/11/10 15:02:30;;;;;;;19.63;11.15;;;11.00;86.50;;;;;;4790797;30;20101;-80
2021/11/10 15:05:12;;;;;;;19.00;11.85;;;11.00;86.90;;;;;;4812735;29;20051;-80
2021/11/10 15:07:39;;;;;;;20.42;11.13;;;10.90;87.10;;;;;;4789850;29;20039;-80
2021/11/10 15:10:23;;;;;;;24.42;12.10;;;10.80;87.50;;;;;;4799460;29;20099;-80
2021/11/10 15:13:13;;;;;;;20.38;11.95;;;10.70;88.20;;;;;;4796529;29;20165;-80
2021/11/10 15:15:42;;;;;;;21.17;12.48;;;10.70;88.50;;;;;;4804572;29;20062;-80
2021/11/10 15:18:13;;;;;;;22.10;12.30;;;10.60;88.90;;;;;;4794010;29;20026;-80
2021/11/10 15:20:40;;;;;;;22.48;12.57;;;10.60;88.90;;;;;;4814471;29;20038;-80
2021/11/10 15:23:09;;;;;;;21.05;13.48;;;10.60;89.60;;;;;;4792054;29;20047;-80
2021/11/10 15:25:46;;;;;;;21.13;13.77;;;10.50;89.80;;;;;;4796382;29;20042;-80
2021/11/10 15:28:14;;;;;;;25.02;14.10;;;10.50;90.30;;;;;;4799944;29;20057;-80
2021/11/10 15:30:42;;;;;;;23.20;14.02;;;10.50;90.40;;;;;;4800362;29;20039;-80
2021/11/10 15:33:10;;;;;;;30.02;16.17;;;10.40;90.80;;;;;;4793650;29;20069;-80
2021/11/10 15:35:39;;;;;;;24.92;16.30;;;10.30;90.60;;;;;;4798669;29;20350;-80
2021/11/10 15:38:14;;;;;;;27.92;16.20;;;10.30;90.90;;;;;;4799414;29;20058;-80
2021/11/10 15:40:42;;;;;;;20.92;14.35;;;10.20;90.90;;;;;;4794950;30;20051;-80
2021/11/10 15:43:08;;;;;;;22.02;14.68;;;10.20;91.20;;;;;;4784419;30;20283;-80
2021/11/10 15:45:34;;;;;;;26.38;15.25;;;10.10;91.20;;;;;;4780989;30;20035;-80
2021/11/10 15:48:00;;;;;;;23.52;14.38;;;10.10;91.30;;;;;;4781087;30;20067;-80
2021/11/10 15:50:26;;;;;;;24.02;14.77;;;10.10;91.50;;;;;;4764937;30;20062;-80
2021/11/10 15:52:51;;;;;;;22.10;14.32;;;10.10;91.70;;;;;;4794704;30;20031;-80
2021/11/10 15:55:18;;;;;;;25.23;16.13;;;10.00;92.00;;;;;;4782001;30;20047;-80
2021/11/10 15:57:44;;;;;;;27.60;16.30;;;10.00;92.00;;;;;;4781143;30;20095;-80
2021/11/10 16:00:19;;;;;;;28.23;15.73;;;10.00;92.10;;;;;;4797025;30;20035;-80
2021/11/10 16:02:51;;;;;;;27.58;16.02;;;9.90;92.20;;;;;;4775156;30;20035;-80
2021/11/10 16:05:25;;;;;;;24.23;15.45;;;9.90;92.40;;;;;;4795894;29;20027;-80
2021/11/10 16:07:52;;;;;;;27.33;16.40;;;9.90;92.50;;;;;;4797077;29;20050;-80
2021/11/10 16:10:18;;;;;;;25.60;16.25;;;9.90;92.50;;;;;;4776896;30;20075;-80
2021/11/10 16:12:44;;;;;;;27.53;16.77;;;9.80;92.60;;;;;;4779660;30;20624;-80
2021/11/10 16:15:10;;;;;;;29.80;17.25;;;9.80;92.60;;;;;;4772791;30;20035;-79
2021/11/10 16:17:36;;;;;;;29.08;17.80;;;9.80;92.90;;;;;;4795800;29;20023;-80
2021/11/10 16:20:07;;;;;;;29.15;17.45;;;9.80;93.10;;;;;;4796534;29;20087;-80
2021/11/10 16:22:33;;;;;;;25.73;17.77;;;9.80;93.30;;;;;;4794077;30;20323;-80
2021/11/10 16:24:59;;;;;;;31.80;18.77;;;9.70;93.60;;;;;;4796668;29;20045;-80
2021/11/10 16:27:29;;;;;;;30.35;18.35;;;9.70;93.60;;;;;;4789213;29;20071;-80
2021/11/10 16:29:57;;;;;;;31.10;18.30;;;9.60;93.80;;;;;;4796488;30;20266;-80
2021/11/10 16:34:50;;;;;;;28.77;20.63;;;9.60;94.20;;;;;;4795843;30;20027;-79
2021/11/10 16:37:15;;;;;;;34.88;21.83;;;9.60;94.50;;;;;;4792713;30;20039;-79
2021/11/10 16:39:42;;;;;;;35.22;21.77;;;9.50;94.80;;;;;;4781373;30;20122;-79
2021/11/10 16:42:08;;;;;;;36.22;22.45;;;9.40;95.00;;;;;;4796280;29;20034;-79